Wednesday, December 19, 2018, 4:45 PM GMT
Back to Local

CYGP, Gaspe, Que.

Location: , , Canada Lat: 48.767
Local Time: 4:45 PM GMT (16:45 GMT) Lon: -64.483
Time Zone: GMT Elev: 108 ft

Show me the last for .
Show Decoded

2018-12-19 16:00 METAR CYGP 191600Z 31018G28KT 270V330 15SM BKN030 M05/M11 A2963 RMK SC6 SLP038 =
2018-12-19 15:17 METAR CYGP 191517Z 31014G25KT 270V340 15SM BKN030 M05/M11 A2963 RMK SC7 SLP038 =
2018-12-19 15:00 METAR CYGP 191500Z 31015G23KT 15SM -SN BKN030 M05/M11 A2963 RMK SC6 SLP038 =
2018-12-19 14:42 METAR CYGP 191442Z 30011G21KT 260V320 15SM -SN BKN030 M05/M10 A2964 RMK SC7
                 SLP041 =
2018-12-19 14:32 METAR CYGP 191432Z 32008G18KT 270V340 15SM BKN030 BKN160 M05/M10 A2964 RMK
                 SC6AC1 SLP040 =
2018-12-19 14:00 METAR CYGP 191400Z 30010G23KT 15SM DRSN BKN030 BKN160 M05/M11 A2964 RMK SC6AC1
                 SLP040 =
2018-12-19 13:00 METAR CYGP 191300Z 29012G28KT 15SM DRSN FEW030 BKN180 M06/M12 A2962 RMK CU2AC3
                 SLP036 =
2018-12-19 12:00 METAR CYGP 191200Z 30012G24KT 15SM FEW030 SCT180 M06/M12 A2961 RMK CU1AC3 SLP032
                 =
2018-12-19 11:00 METAR CYGP 191100Z 30015G22KT 15SM BKN030 M06/M12 A2959 RMK SC6 SLP025 =
2018-12-19 10:00 METAR CYGP 191000Z CCA 29012G23KT 15SM DRSN SCT030 M06/M11 A2957 RMK SC4 SLP016
                 =
2018-12-19 09:00 METAR CYGP 190900Z 28012G21KT 260V320 15SM DRSN SCT030 M06/M11 A2954 RMK SC3
                 SLP007 =
2018-12-19 08:00 METAR CYGP 190800Z 30015G32KT 260V330 15SM DRSN SCT030 M06/M11 A2951 RMK SC3
                 SLP997 =
2018-12-19 07:00 METAR CYGP 190700Z 30015G23KT 270V340 15SM DRSN BKN030 M05/M11 A2950 RMK SC5
                 SLP994 =
2018-12-19 06:00 METAR CYGP 190600Z 30014G32KT 7SM DRSN BKN030 M04/M10 A2946 RMK SC6 PRESRR
                 SLP979 =
2018-12-19 05:00 METAR CYGP 190500Z 30017G29KT 5SM DRSN OVC035 M03/M09 A2941 RMK SC8 SLP964 =
2018-12-19 04:00 METAR CYGP 190400Z 31017G27KT 5SM DRSN BKN043 M03/M09 A2940 RMK SC7 SLP960 =
2018-12-19 03:35 METAR CYGP 190335Z 30016G30KT 280V340 5SM DRSN BKN043 M03/M09 A2940 RMK SC7
                 SLP958 =
2018-12-19 03:00 METAR CYGP 190300Z 31014G30KT 290V350 5SM -SN DRSN OVC040 M03/M08 A2939 RMK SC8
                 SLP955 =
2018-12-19 02:00 METAR CYGP 190200Z 30012G25KT 5SM -SN DRSN OVC044 M03/M08 A2937 RMK NS8 VIS W 2
                 SLP950 =
2018-12-19 01:00 METAR CYGP 190100Z 31018G28KT 4SM -SN DRSN OVC027 M03/M07 A2936 RMK SC8 VIS W 2
                 SLP946 =
2018-12-19 00:00 METAR CYGP 190000Z 31018G27KT 4SM -SN DRSN OVC044 M03/M08 A2934 RMK SC8 SLP939 =
2018-12-18 23:00 METAR CYGP 182300Z 32018G30KT 5SM -SN DRSN OVC048 M03/M07 A2932 RMK SC8 SLP932 =
2018-12-18 22:00 METAR CYGP 182200Z 31018G33KT 5SM -SN DRSN OVC041 M03/M07 A2929 RMK SC8 SLP923 =
2018-12-18 21:00 METAR CYGP 182100Z 31017G26KT 270V340 5SM -SN DRSN OVC046 M03/M07 A2928 RMK SC8
                 SLP917 =
2018-12-18 20:00 METAR CYGP 182000Z 31015G23KT 5SM -SN DRSN OVC053 M03/M07 A2925 RMK SC8 SLP908 =
2018-12-18 19:00 METAR CYGP 181900Z 31013G27KT 5SM -SN DRSN BKN051 OVC064 M03/M06 A2923 RMK
                 SC5SC3 SLP903 =
2018-12-18 18:00 METAR CYGP 181800Z 30011G24KT 280V340 4SM -SN OVC019 M02/M05 A2922 RMK SC8
                 SLP899 =
2018-12-18 17:35 METAR CYGP 181735Z 31011G22KT 2 1/2SM -SN OVC018 M02/M05 A2922 RMK SC8 SLP897 =
2018-12-18 17:00 METAR CYGP 181700Z 31015G30KT 280V340 2 1/2SM SHSN BKN023 OVC035 M02/M04 A2921
                 RMK SC5SC3 /SO1/ SLP895 =

Support USWX by starting your Amazon purchase here.